Tiempo atmosférico en la estación meteorológica de Hoyos , Cáceres (569 m.)



Fecha
DESCASC
Temp. máxima en grados centígrados (hora)
DESCASC
Temp. mínima en grados centígrados (hora)
DESCASC
Temp. media en grados centígrados
DESCASC
Racha de viento máxima en m/sg (hora)
DESCASC
Velocidad máxima media en intervalos de 10 minutos(hora)
DESCASC
Precipitaciones diarias en mm
DESCASC
Precipitaciones de 00:00 a 06:00 en mm
DESCASC
Precipitaciones de 06:00 a 12:00 en mm
DESCASC
Precipitaciones de 12:00 a 18:00 en mm
DESCASC
Precipitaciones de 18:00 a 24:00 en mm
DESCASC
31-05-2020 28.7 (16:30) 14.5 (23:59) 21.6 16.67 (20:20) 10.28 (18:50) 11.6 0 0 0 11.6
30-05-2020 29.6 (15:20) 20.8 (05:10) 25.2 10 (21:00) 5.28 (00:30) 0 0 0 0 0
29-05-2020 29.8 (17:50) 15.9 (06:30) 22.8 9.72 (23:30) 5.83 (23:30) 0 0 0 0 0
28-05-2020 28.5 (18:00) 15.5 (00:00) 22 5.28 (15:40) 2.78 (15:20) 0 0 0 0 0
27-05-2020 29 (17:10) 15.6 (00:00) 22.3 7.5 (18:00) 4.17 (18:00) 0 0 0 0 0
26-05-2020 28.4 (17:20) 16.4 (00:00) 22.4 10 (06:20) 5.56 (06:20) 0 0 0 0 0
25-05-2020 30.6 (16:40) 20.6 (00:00) 25.6 7.78 (05:00) 4.72 (01:50) 0 0 0 0 0
24-05-2020 29.5 (18:20) 17.5 (00:00) 23.5 8.89 (01:00) 5 (00:50) 0 0 0 0 0
23-05-2020 29.7 (18:40) 16.7 (00:00) 23.2 11.67 (02:00) 7.5 (02:00) 0 0 0 0 0
22-05-2020 29.1 (17:30) 12.8 (00:00) 21 6.94 (10:00) 4.17 (04:30) 0 0 0 0 0
21-05-2020 28.4 (17:40) 15.4 (00:00) 21.9 6.67 (14:10) 3.61 (14:00) 0 0 0 0 0
20-05-2020 29.3 (18:20) 13.8 (00:00) 21.5 7.78 (21:00) 5 (21:00) 0 0 0 0 0
19-05-2020 28.8 (19:20) 17.3 (00:00) 23 9.17 (05:30) 4.72 (05:00) 0 0 0 0 0
18-05-2020 27.2 (18:00) 12.8 (00:00) 20 7.22 (09:40) 3.61 (07:10) 0 0 0 0 0
17-05-2020 22.9 (18:30) 11.2 (00:00) 17 8.61 (08:50) 5.28 (08:50) 0 0 0 0 0
16-05-2020 21.4 (19:10) 9.6 (00:00) 15.5 9.17 (08:10) 5.56 (07:50) 0 0 0 0 0
15-05-2020 17.9 (18:30) 10.3 (00:00) 14.1 8.33 (15:30) 3.33 (15:40) 8.8 0.2 0 6.2 2.4
14-05-2020 15.6 (18:00) 8.4 (00:00) 12 7.22 (03:30) 4.17 (03:30) 9.6 9 0 0 0.6
13-05-2020 16.3 (15:30) 10.9 (00:00) 13.6 13.06 (20:10) 5 (20:10) 9 0.4 2.2 0 6.4
12-05-2020 15.7 (15:40) 10.1 (00:00) 12.9 7.5 (17:00) 4.44 (17:00) 2.8 0 0 2.8 0
11-05-2020 16.9 (18:50) 11 (00:00) 13.9 8.61 (16:00) 4.44 (16:00) 18.8 3 8.8 6.8 0.2
10-05-2020 17.2 (16:30) 6.9 (00:00) 12.1 9.17 (19:00) 5.28 (19:40) 3.4 0 2.4 1 0
09-05-2020 19 (16:50) 9.9 (00:00) 14.4 9.72 (17:40) 5.83 (17:40) 6.8 0 0 2.2 4.6
08-05-2020 23.2 (17:10) 13.9 (00:00) 18.6 7.78 (23:10) 4.72 (23:10) 0 0 0 0 0
07-05-2020 25 (19:10) 16.1 (00:00) 20.6 8.06 (02:00) 4.72 (02:20) 0 0 0 0 0
06-05-2020 23 (18:10) 8.8 (00:00) 15.9 9.44 (09:10) 5.28 (09:40) 0 0 0 0 0
05-05-2020 20.8 (17:20) 8.6 (00:00) 14.7 10 (01:30) 6.11 (01:10) 0 0 0 0 0
04-05-2020 22.1 (12:10) 13.5 (00:00) 17.8 11.67 (17:10) 6.11 (18:00) 0 0 0 0 0
03-05-2020 27.4 (17:50) 11.5 (00:00) 19.4 8.33 (18:00) 4.17 (18:00) 0 0 0 0 0

Gráficas

Temp. máximas Temp. mínimas Temp. medias Precipitaciones Rachas de viento máximas Velocidades máximas media en intervalos de 10 minutos

Datos horarios

Fecha y hora oficial Temperatura (ºC) Velocidad del viento (km/h) Dirección del viento Racha (km/h) Dirección de racha Precipitación (mm) Presión (hPa) Tendencia (hPa) Humedad (%)
2020-06-01 23:00:00 18.5 6 Noroeste 8 Noroeste 0 -- -- 65
2020-06-01 22:00:00 19.1 6 Noroeste 10 Sudoeste 0 -- -- 66
2020-06-01 21:00:00 21.6 6 Oeste 20 Sur 0 -- -- 57
2020-06-01 20:00:00 23.4 12 Sur 23 Sur 0 -- -- 51
2020-06-01 19:00:00 23.4 6 Sur 19 Sur 0 -- -- 52
2020-06-01 18:00:00 24.6 11 Sur 21 Sur 0 -- -- 47
2020-06-01 17:00:00 24.3 13 Sur 24 Sur 0 -- -- 48
2020-06-01 16:00:00 24.8 11 Sur 26 Sur 0 -- -- 43
2020-06-01 15:00:00 24.2 8 Sudeste 20 Sudeste 0 -- -- 52
2020-06-01 14:00:00 23.4 12 Sur 22 Sudeste 0 -- -- 54
2020-06-01 13:00:00 23.2 7 Sudeste 20 Sur 0 -- -- 54
2020-06-01 12:00:00 22.3 8 Sudeste 16 Este 0 -- -- 60
2020-06-01 11:00:00 21.3 4 Nordeste 10 Sudeste 0 -- -- 67
2020-06-01 10:00:00 20 2 Sudeste 7 Sudeste 0 -- -- 69
2020-06-01 09:00:00 18 0 Calma 7 Nordeste 0 -- -- 77
2020-06-01 08:00:00 15.9 2 Nordeste 8 Nordeste 0 -- -- 82
2020-06-01 07:00:00 14.9 3 Nordeste 9 Este 0 -- -- 83
2020-06-01 06:00:00 14.6 4 Norte 9 Noroeste 0 -- -- 83
2020-06-01 05:00:00 14 3 Norte 6 Norte 0 -- -- 86
2020-06-01 04:00:00 16.1 3 Norte 13 Nordeste 0 -- -- 73
2020-06-01 03:00:00 16.1 4 Nordeste 12 Nordeste 0 -- -- 68
2020-06-01 02:00:00 13.6 4 Noroeste 8 Noroeste 0 -- -- 82
2020-06-01 01:00:00 14.2 3 Noroeste 9 Norte 0 -- -- 82
2020-06-01 00:00:00 14.5 3 Norte 13 Sudeste 0 -- -- 82
2020-05-31 23:00:00 16.5 5 Noroeste 33 Norte 0 -- -- 74
2020-05-31 22:00:00 16.3 24 Norte 45 Norte 0 -- -- 75
2020-05-31 21:00:00 16 21 Norte 60 Noroeste 11.6 -- -- 77
2020-05-31 20:00:00 19.2 21 Noroeste 56 Norte 0 -- -- 60
2020-05-31 19:00:00 20.7 28 Norte 55 Norte 0 -- -- 49
2020-05-31 18:00:00 25.3 8 Sudoeste 20 Sudeste 0 -- -- 51
2020-05-31 17:00:00 27.4 10 Sur 20 Sur 0 -- -- 48
2020-05-31 16:00:00 28.5 6 Sur 18 Sudeste 0 -- -- 50
2020-05-31 15:00:00 27.3 6 Este 14 Sudeste 0 -- -- 52
2020-05-31 14:00:00 26.3 9 Sudeste 18 Sudeste 0 -- -- 51
2020-05-31 13:00:00 26.3 8 Sudeste 17 Sudeste 0 -- -- 51
2020-05-31 12:00:00 25.6 5 Este 15 Este 0 -- -- 56
2020-05-31 11:00:00 24.7 7 Nordeste 17 Nordeste 0 -- -- 54
2020-05-31 10:00:00 23.4 4 Norte 8 Nordeste 0 -- -- 56
2020-05-31 09:00:00 19.6 3 Norte 6 Norte 0 -- -- 76
2020-05-31 08:00:00 18.1 5 Norte 9 Norte 0 -- -- 70
2020-05-31 07:00:00 16.9 3 Nordeste 5 Noroeste 0 -- -- 72
2020-05-31 06:00:00 17.5 5 Noroeste 7 Noroeste 0 -- -- 68
2020-05-31 05:00:00 18.9 3 Norte 5 Norte 0 -- -- 66
2020-05-31 04:00:00 19.6 0 Calma 5 Noroeste 0 -- -- 64
2020-05-31 03:00:00 20 4 Norte 12 Noroeste 0 -- -- 62
2020-05-31 02:00:00 22.8 10 Noroeste 15 Noroeste 0 -- -- 42
2020-05-31 01:00:00 22.6 9 Norte 17 Norte 0 -- -- 42
2020-05-31 00:00:00 23.8 14 Norte 27 Noroeste 0 -- -- 39
2020-05-30 23:00:00 22.3 14 Norte 26 Norte 0 -- -- 48
2020-05-30 22:00:00 22.6 15 Norte 33 Norte 0 -- -- 47
2020-05-30 21:00:00 23.6 17 Norte 36 Norte 0 -- -- 49
2020-05-30 20:00:00 24.7 17 Norte 30 Noroeste 0 -- -- 47
2020-05-30 19:00:00 25.5 13 Norte 22 Noroeste 0 -- -- 50
2020-05-30 18:00:00 24.9 8 Oeste 20 Oeste 0 -- -- 59
2020-05-30 17:00:00 25.8 5 Noroeste 9 Noroeste 0 -- -- 62
2020-05-30 16:00:00 28.2 5 Sur 15 Sudeste 0 -- -- 46
2020-05-30 15:00:00 29.1 5 Este 15 Este 0 -- -- 43
2020-05-30 14:00:00 27.3 5 Sudeste 18 Sur 0 -- -- 44
2020-05-30 13:00:00 27.1 8 Sudeste 18 Sudeste 0 -- -- 46
2020-05-30 12:00:00 25.9 7 Este 15 Sudeste 0 -- -- 47
2020-05-30 11:00:00 25 4 Este 11 Este 0 -- -- 56
2020-05-30 10:00:00 23.9 5 Sudeste 13 Sudeste 0 -- -- 60
2020-05-30 09:00:00 24.2 0 Calma 15 Norte 0 -- -- 61
2020-05-30 08:00:00 21.8 10 Norte 17 Norte 0 -- -- 58
2020-05-30 07:00:00 21.4 8 Norte 14 Norte 0 -- -- 57
2020-05-30 06:00:00 21.6 6 Norte 14 Noroeste 0 -- -- 60
2020-05-30 05:00:00 21 0 Calma 7 Norte 0 -- -- 59
2020-05-30 04:00:00 22.9 3 Sudoeste 19 Nordeste 0 -- -- 53
2020-05-30 03:00:00 22.6 3 Este 24 Norte 0 -- -- 55
2020-05-30 02:00:00 24.3 14 Noroeste 26 Noroeste 0 -- -- 46
2020-05-30 01:00:00 24.4 15 Noroeste 29 Noroeste 0 -- -- 52
2020-05-30 00:00:00 25.2 18 Noroeste 35 Noroeste 0 -- -- 47
2020-05-29 23:00:00 25.2 15 Noroeste 27 Noroeste 0 -- -- 46
2020-05-29 22:00:00 25.5 15 Noroeste 26 Noroeste 0 -- -- 43
2020-05-29 21:00:00 25.4 15 Noroeste 23 Noroeste 0 -- -- 46
2020-05-29 20:00:00 26.5 14 Noroeste 20 Noroeste 0 -- -- 50
2020-05-29 19:00:00 28.3 9 Noroeste 18 Oeste 0 -- -- 48
2020-05-29 18:00:00 29.6 5 Sudoeste 13 Sudoeste 0 -- -- 41
2020-05-29 17:00:00 29.3 6 Sur 15 Sudoeste 0 -- -- 42
2020-05-29 16:00:00 29.5 9 Sudoeste 17 Sur 0 -- -- 42
2020-05-29 15:00:00 28.7 10 Sur 21 Sur 0 -- -- 43
2020-05-29 14:00:00 27.3 9 Sudeste 16 Sudeste 0 -- -- 46
2020-05-29 13:00:00 26.1 8 Sudeste 14 Sudeste 0 -- -- 51
2020-05-29 12:00:00 24.8 4 Sudeste 9 Sur 0 -- -- 52
2020-05-29 11:00:00 23 4 Sur 12 Sudeste 0 -- -- 50
2020-05-29 10:00:00 22.3 3 Sur 8 Sur 0 -- -- 51
2020-05-29 09:00:00 20.9 5 Sur 13 Sudeste 0 -- -- 51
2020-05-29 08:00:00 17.8 2 Noroeste 12 Oeste 0 -- -- 59
2020-05-29 07:00:00 16.5 5 Noroeste 10 Noroeste 0 -- -- 63
2020-05-29 06:00:00 17.1 5 Noroeste 8 Norte 0 -- -- 62
2020-05-29 05:00:00 17.3 2 Norte 8 Norte 0 -- -- 61
2020-05-29 04:00:00 17.9 4 Norte 10 Este 0 -- -- 64
2020-05-29 03:00:00 19.5 5 Norte 8 Norte 0 -- -- 57
2020-05-29 02:00:00 19.3 5 Norte 7 Norte 0 -- -- 58
2020-05-29 01:00:00 19.2 6 Norte 8 Norte 0 -- -- 58
2020-05-29 00:00:00 18.5 5 Norte 8 Norte 0 -- -- 62
2020-05-28 23:00:00 18.2 4 Norte 6 Norte 0 -- -- 67
2020-05-28 22:00:00 19.4 4 Norte 6 Nordeste 0 -- -- 67
2020-05-28 21:00:00 22.6 3 Nordeste 8 Noroeste 0 -- -- 61
2020-05-28 20:00:00 27.6 4 Sur 13 Sudeste 0 -- -- 47
2020-05-28 19:00:00 28.5 4 Sudoeste 16 Sudeste 0 -- -- 37
2020-05-28 18:00:00 28.5 7 Sudeste 15 Sur 0 -- -- 39
2020-05-28 17:00:00 28.3 7 Sur 16 Sudeste 0 -- -- 40
2020-05-28 16:00:00 27.8 7 Sur 19 Sudeste 0 -- -- 44
2020-05-28 15:00:00 26.8 8 Sur 17 Sudoeste 0 -- -- 46
2020-05-28 14:00:00 26 8 Sudeste 18 Sudeste 0 -- -- 45
2020-05-28 13:00:00 24.8 8 Sudeste 14 Sudeste 0 -- -- 47
2020-05-28 12:00:00 23.1 6 Sudeste 13 Sudeste 0 -- -- 51
2020-05-28 11:00:00 21.5 6 Sur 15 Sur 0 -- -- 52
2020-05-28 10:00:00 20.5 5 Sur 11 Sudeste 0 -- -- 52
2020-05-28 09:00:00 19 4 Sur 10 Nordeste 0 -- -- 51
2020-05-28 08:00:00 15.6 3 Norte 14 Nordeste 0 -- -- 63
2020-05-28 07:00:00 16.8 6 Nordeste 14 Nordeste 0 -- -- 50
2020-05-28 06:00:00 18 3 Nordeste 12 Nordeste 0 -- -- 48
2020-05-28 05:00:00 18.5 5 Nordeste 12 Norte 0 -- -- 52
2020-05-28 04:00:00 20.2 2 Sur 17 Sudeste 0 -- -- 53
2020-05-28 03:00:00 19.9 3 Norte 9 Sur 0 -- -- 57
2020-05-28 02:00:00 21.7 6 Nordeste 13 Nordeste 0 -- -- 49
2020-05-28 01:00:00 21.8 6 Norte 13 Norte 0 -- -- 49
2020-05-28 00:00:00 22.1 8 Norte 13 Norte 0 -- -- 48
2020-05-27 23:00:00 22.3 7 Norte 12 Nordeste 0 -- -- 49
2020-05-27 22:00:00 22.4 6 Norte 10 Norte 0 -- -- 52
2020-05-27 21:00:00 23.5 4 Norte 9 Noroeste 0 -- -- 55
2020-05-27 20:00:00 27.7 5 Sudeste 21 Sudeste 0 -- -- 39
2020-05-27 19:00:00 28.5 8 Sudeste 21 Sudeste 0 -- -- 37
2020-05-27 18:00:00 28.7 15 Sudeste 27 Sudeste 0 -- -- 34
2020-05-27 17:00:00 28.9 11 Sudeste 23 Sur 0 -- -- 35
2020-05-27 16:00:00 28.6 10 Sudeste 21 Sudeste 0 -- -- 35
2020-05-27 15:00:00 27.9 7 Sudeste 19 Este 0 -- -- 38
2020-05-27 14:00:00 26.8 8 Sudeste 18 Sudeste 0 -- -- 38
2020-05-27 13:00:00 26 8 Sur 13 Sur 0 -- -- 48
2020-05-27 12:00:00 24.8 5 Sudeste 12 Sur 0 -- -- 47
2020-05-27 11:00:00 22.8 6 Sur 13 Sudeste 0 -- -- 51
2020-05-27 10:00:00 22.2 7 Sudeste 15 Sudeste 0 -- -- 51
2020-05-27 09:00:00 20.4 2 Sur 6 Sur 0 -- -- 62
2020-05-27 08:00:00 16.5 3 Noroeste 6 Noroeste 0 -- -- 79
2020-05-27 07:00:00 16.4 3 Nordeste 7 Norte 0 -- -- 77
2020-05-27 06:00:00 16.2 2 Norte 8 Noroeste 0 -- -- 78
2020-05-27 05:00:00 17.6 3 Norte 7 Nordeste 0 -- -- 72
2020-05-27 04:00:00 19.9 5 Nordeste 11 Norte 0 -- -- 60
2020-05-27 03:00:00 19.7 6 Norte 10 Norte 0 -- -- 64
2020-05-27 02:00:00 19.9 7 Norte 13 Norte 0 -- -- 63
2020-05-27 01:00:00 19.7 9 Norte 11 Norte 0 -- -- 61
2020-05-27 00:00:00 18.6 5 Norte 7 Norte 0 -- -- 65
2020-05-26 23:00:00 20.6 6 Norte 14 Norte 0 -- -- 60
2020-05-26 22:00:00 20.1 9 Norte 13 Norte 0 -- -- 62
2020-05-26 21:00:00 20.8 5 Norte 12 Norte 0 -- -- 71
2020-05-26 20:00:00 24.1 4 Noroeste 18 Nordeste 0 -- -- 62
2020-05-26 19:00:00 27.1 5 Sudeste 17 Este 0 -- -- 53
2020-05-26 18:00:00 26.2 6 Este 22 Sudeste 0 -- -- 50
2020-05-26 17:00:00 27.9 8 Sudeste 20 Sudeste 0 -- -- 44
2020-05-26 16:00:00 27.1 9 Sudeste 18 Sudeste 0 -- -- 50
2020-05-26 15:00:00 26.5 10 Sudeste 20 Sudeste 0 -- -- 55
2020-05-26 14:00:00 25.9 10 Sudeste 27 Este 0 -- -- 53
2020-05-26 13:00:00 25.7 6 Sudeste 17 Nordeste 0 -- -- 54
2020-05-26 12:00:00 24.1 6 Norte 18 Nordeste 0 -- -- 58
2020-05-26 11:00:00 22.7 9 Nordeste 22 Norte 0 -- -- 62
2020-05-26 10:00:00 21.1 12 Norte 22 Norte 0 -- -- 64
2020-05-26 09:00:00 18.8 13 Nordeste 23 Norte 0 -- -- 71
2020-05-26 08:00:00 16.4 14 Norte 26 Nordeste 0 -- -- 78
2020-05-26 07:00:00 16.8 16 Norte 36 Norte 0 -- -- 75
2020-05-26 06:00:00 17.7 19 Norte 34 Norte 0 -- -- 73
2020-05-26 05:00:00 19.5 11 Norte 20 Norte 0 -- -- 62
2020-05-26 04:00:00 19.7 8 Norte 14 Norte 0 -- -- 58
2020-05-26 03:00:00 20.6 3 Nordeste 12 Norte 0 -- -- 58
2020-05-26 02:00:00 21 6 Norte 16 Norte 0 -- -- 55
2020-05-26 01:00:00 21.9 7 Nordeste 15 Nordeste 0 -- -- 54
2020-05-26 00:00:00 23.2 9 Norte 22 Norte 0 -- -- 51
2020-05-25 23:00:00 24 11 Norte 21 Norte 0 -- -- 48
2020-05-25 22:00:00 23.8 9 Norte 18 Noroeste 0 -- -- 50
2020-05-25 21:00:00 23.9 2 Norte 8 Norte 0 -- -- 63
2020-05-25 20:00:00 28 3 Noroeste 12 Sudoeste 0 -- -- 57
2020-05-25 19:00:00 28.4 2 Sudeste 12 Nordeste 0 -- -- 53
2020-05-25 18:00:00 29.8 4 Sudoeste 10 Sur 0 -- -- 46
2020-05-25 17:00:00 30.5 7 Sudoeste 16 Oeste 0 -- -- 45
2020-05-25 16:00:00 29.5 5 Oeste 17 Sudeste 0 -- -- 50
2020-05-25 15:00:00 28.8 8 Sudeste 20 Sudeste 0 -- -- 49
2020-05-25 14:00:00 28.3 8 Sudeste 18 Sudeste 0 -- -- 52
2020-05-25 13:00:00 27.3 4 Sur 12 Este 0 -- -- 54
2020-05-25 12:00:00 26.2 8 Sudeste 14 Sudeste 0 -- -- 57
2020-05-25 11:00:00 25.2 6 Sudeste 12 Sudeste 0 -- -- 60
2020-05-25 10:00:00 24.7 7 Este 15 Norte 0 -- -- 60
2020-05-25 09:00:00 22.9 9 Norte 15 Norte 0 -- -- 61
2020-05-25 08:00:00 20.6 10 Norte 16 Nordeste -- -- -- 65
2020-05-25 07:00:00 21.7 11 Norte 23 Noroeste 0 -- -- 59
2020-05-25 06:00:00 22.1 12 Norte 27 Norte 0 -- -- 58
2020-05-25 05:00:00 22.9 17 Noroeste 28 Noroeste 0 -- -- 56
2020-05-25 04:00:00 22.9 15 Norte 22 Norte 0 -- -- 56
2020-05-25 03:00:00 23.2 13 Norte 25 Noroeste 0 -- -- 55
2020-05-25 02:00:00 23.4 14 Noroeste 27 Norte 0 -- -- 56
2020-05-25 01:00:00 23.5 14 Noroeste 25 Noroeste 0 -- -- 57
2020-05-25 00:00:00 23.7 15 Norte 27 Noroeste 0 -- -- 57
2020-05-24 23:00:00 23.5 12 Noroeste 20 Norte 0 -- -- 59
2020-05-24 22:00:00 23.4 11 Noroeste 14 Noroeste 0 -- -- 59
2020-05-24 21:00:00 24.3 6 Noroeste 10 Noroeste 0 -- -- 64
2020-05-24 20:00:00 28.6 6 Oeste 15 Sudoeste 0 -- -- 51
2020-05-24 19:00:00 29.2 10 Oeste 17 Sudoeste 0 -- -- 44
2020-05-24 18:00:00 29.3 7 Sur 15 Sur 0 -- -- 44
2020-05-24 17:00:00 28.8 8 Sur 16 Sudoeste 0 -- -- 48
2020-05-24 16:00:00 28.5 5 Sur 15 Sur 0 -- -- 49
2020-05-24 15:00:00 27.2 6 Sudeste 15 Sudeste 0 -- -- 52
2020-05-24 14:00:00 26.7 7 Sudeste 15 Este 0 -- -- 53
2020-05-24 13:00:00 26.1 6 Norte 13 Noroeste 0 -- -- 55
2020-05-24 12:00:00 24.5 7 Norte 16 Norte 0 -- -- 58
2020-05-24 11:00:00 23.4 8 Norte 19 Nordeste 0 -- -- 60
2020-05-24 10:00:00 23.3 8 Nordeste 15 Nordeste 0 -- -- 59
2020-05-24 09:00:00 19.1 11 Nordeste 24 Norte 0 -- -- 70
2020-05-24 08:00:00 17.6 15 Norte 27 Norte 0 -- -- 73
2020-05-24 07:00:00 17.5 9 Norte 22 Norte 0 -- -- 74
2020-05-24 06:00:00 18.8 14 Norte 27 Norte 0 -- -- 70
2020-05-24 05:00:00 19.6 6 Norte 14 Nordeste 0 -- -- 68
2020-05-24 04:00:00 20.7 6 Norte 15 Noroeste 0 -- -- 63
2020-05-24 03:00:00 22.2 10 Norte 15 Norte 0 -- -- 58
2020-05-24 02:00:00 22.6 10 Norte 27 Norte 0 -- -- 57
2020-05-24 01:00:00 23.1 16 Norte 32 Noroeste 0 -- -- 53
2020-05-24 00:00:00 23.1 14 Norte 27 Noroeste 0 -- -- 52
2020-05-23 23:00:00 23.5 15 Noroeste 25 Noroeste 0 -- -- 52
2020-05-23 22:00:00 23.6 12 Noroeste 19 Norte 0 -- -- 49
2020-05-23 21:00:00 24.4 8 Noroeste 13 Norte 0 -- -- 55
2020-05-23 20:00:00 28.1 5 Norte 14 Norte 0 -- -- 49
2020-05-23 19:00:00 29.6 6 Norte 17 Norte 0 -- -- 46
2020-05-23 18:00:00 29.4 7 Nordeste 19 Norte 0 -- -- 45
2020-05-23 17:00:00 29.5 6 Nordeste 20 Norte 0 -- -- 45
2020-05-23 16:00:00 28.6 9 Norte 20 Nordeste 0 -- -- 47
2020-05-23 15:00:00 27.7 9 Norte 24 Norte 0 -- -- 52
2020-05-23 14:00:00 26.8 14 Norte 25 Nordeste 0 -- -- 53
2020-05-23 13:00:00 25.6 12 Norte 30 Nordeste 0 -- -- 54
2020-05-23 12:00:00 23.2 18 Norte 34 Norte 0 -- -- 63
2020-05-23 11:00:00 22 18 Norte 35 Norte 0 -- -- 64
2020-05-23 10:00:00 22.2 10 Norte 26 Norte 0 -- -- 60
2020-05-23 09:00:00 20.6 2 Este 19 Norte 0 -- -- 65
2020-05-23 08:00:00 16.8 3 Nordeste 19 Norte 0 -- -- 75
2020-05-23 07:00:00 18.6 10 Norte 32 Noroeste 0 -- -- 66
2020-05-23 06:00:00 18.8 22 Norte 41 Norte 0 -- -- 71
2020-05-23 05:00:00 19.4 22 Norte 39 Norte 0 -- -- 66
2020-05-23 04:00:00 19.6 22 Norte 39 Norte 0 -- -- 66
2020-05-23 03:00:00 19 16 Norte 41 Norte 0 -- -- 71
2020-05-23 02:00:00 19.9 27 Norte 42 Norte 0 -- -- 72
2020-05-23 01:00:00 20.6 13 Norte 28 Norte 0 -- -- 69
2020-05-23 00:00:00 19.9 9 Norte 15 Norte 0 -- -- 66
2020-05-22 23:00:00 18.4 6 Nordeste 9 Nordeste 0 -- -- 69
2020-05-22 22:00:00 19.3 6 Noroeste 8 Noroeste 0 -- -- 60
2020-05-22 21:00:00 20.8 5 Norte 6 Norte 0 -- -- 59
2020-05-22 20:00:00 28 4 Noroeste 7 Oeste 0 -- -- 39
2020-05-22 19:00:00 28.7 5 Sur 9 Sur 0 -- -- 27
2020-05-22 18:00:00 28.9 6 Sur 15 Sudeste 0 -- -- 21
2020-05-22 17:00:00 28.7 8 Sur 14 Sudeste 0 -- -- 29
2020-05-22 16:00:00 28 7 Sur 16 Sur 0 -- -- 38
2020-05-22 15:00:00 27.2 6 Sur 18 Sudeste 0 -- -- 49
2020-05-22 14:00:00 26.3 9 Sur 19 Sudeste 0 -- -- 52
2020-05-22 13:00:00 26.2 6 Sudeste 14 Sudeste 0 -- -- 50
2020-05-22 12:00:00 25.1 7 Sudeste 13 Sur 0 -- -- 55
2020-05-22 11:00:00 24.6 5 Este 23 Noroeste 0 -- -- 60
2020-05-22 10:00:00 22.6 12 Norte 25 Norte 0 -- -- 60
2020-05-22 09:00:00 20.7 10 Norte 20 Norte 0 -- -- 64
2020-05-22 08:00:00 18 5 Norte 19 Norte 0 -- -- 70
2020-05-22 07:00:00 18 10 Norte 21 Norte 0 -- -- 69
2020-05-22 06:00:00 17.2 10 Norte 23 Norte 0 -- -- 68
2020-05-22 05:00:00 18 13 Norte 23 Norte 0 -- -- 65
2020-05-22 04:00:00 16.6 10 Norte 14 Norte 0 -- -- 57
2020-05-22 03:00:00 13.7 3 Norte 11 Nordeste 0 -- -- 72
2020-05-22 02:00:00 13.3 5 Nordeste 6 Norte 0 -- -- 73
2020-05-22 01:00:00 14 5 Norte 7 Noroeste 0 -- -- 68
2020-05-22 00:00:00 16.4 2 Noroeste 21 Noroeste 0 -- -- 61
2020-05-21 23:00:00 19.8 10 Noroeste 22 Noroeste 0 -- -- 50
2020-05-21 22:00:00 19.6 8 Oeste 13 Oeste 0 -- -- 50
2020-05-21 21:00:00 21.4 9 Noroeste 13 Oeste 0 -- -- 53
2020-05-21 20:00:00 26.1 7 Oeste 18 Sudoeste 0 -- -- 41
2020-05-21 19:00:00 27.6 6 Oeste 18 Sudoeste 0 -- -- 38
2020-05-21 18:00:00 28 9 Oeste 21 Sudoeste 0 -- -- 39
2020-05-21 17:00:00 28.2 12 Oeste 22 Oeste 0 -- -- 39
2020-05-21 16:00:00 27.7 9 Oeste 23 Sudoeste 0 -- -- 34
2020-05-21 15:00:00 27.4 11 Oeste 24 Sudoeste 0 -- -- 35
2020-05-21 14:00:00 26.5 13 Sudoeste 21 Sudoeste 0 -- -- 43
2020-05-21 13:00:00 25.9 7 Sudoeste 18 Sudeste 0 -- -- 37
2020-05-21 12:00:00 24.8 9 Sudeste 15 Sudeste 0 -- -- 61
2020-05-21 11:00:00 24.3 5 Sudeste 10 Sudeste 0 -- -- 65
2020-05-21 10:00:00 23.2 2 Sudeste 6 Sudeste 0 -- -- 68
2020-05-21 09:00:00 21 0 Calma 4 Norte 0 -- -- 72
2020-05-21 08:00:00 16.3 0 Calma 5 Norte 0 -- -- 86
2020-05-21 07:00:00 16.6 2 Noroeste 12 Norte 0 -- -- 80
2020-05-21 06:00:00 19.6 8 Norte 16 Norte 0 -- -- 69
2020-05-21 05:00:00 19.4 9 Norte 16 Norte 0 -- -- 68
2020-05-21 04:00:00 19.4 5 Norte 17 Norte 0 -- -- 69
2020-05-21 03:00:00 18.3 4 Oeste 11 Noroeste 0 -- -- 73
2020-05-21 02:00:00 17.8 3 Este 11 Norte 0 -- -- 76
2020-05-21 01:00:00 18.1 4 Noroeste 12 Nordeste 0 -- -- 75
2020-05-21 00:00:00 19.5 4 Noroeste 19 Noroeste 0 -- -- 67
2020-05-20 23:00:00 22.6 15 Noroeste 26 Noroeste 0 -- -- 59
2020-05-20 22:00:00 22.5 14 Oeste 27 Oeste 0 -- -- 54
2020-05-20 21:00:00 23.7 18 Oeste 28 Oeste 0 -- -- 48
2020-05-20 20:00:00 26.5 12 Oeste 23 Oeste 0 -- -- 44
2020-05-20 19:00:00 28.4 12 Oeste 20 Sudoeste 0 -- -- 40
2020-05-20 18:00:00 28.5 8 Oeste 18 Sudoeste 0 -- -- 37
2020-05-20 17:00:00 29 9 Sudoeste 18 Sudoeste 0 -- -- 33
2020-05-20 16:00:00 28.8 10 Sudoeste 19 Sudoeste 0 -- -- 37
2020-05-20 15:00:00 28.2 8 Sudoeste 18 Sudoeste 0 -- -- 35
2020-05-20 14:00:00 27.3 12 Sudoeste 22 Sudoeste 0 -- -- 40
2020-05-20 13:00:00 26.7 10 Sudoeste 21 Sudoeste 0 -- -- 44
2020-05-20 12:00:00 26.2 4 Sur 9 Este 0 -- -- 47
2020-05-20 11:00:00 25.1 2 Sudoeste 7 Este 0 -- -- 46
2020-05-20 10:00:00 24 2 Nordeste 9 Nordeste 0 -- -- 49
2020-05-20 09:00:00 20.5 6 Este 14 Nordeste 0 -- -- 56
2020-05-20 08:00:00 16.3 9 Norte 14 Nordeste 0 -- -- 63
2020-05-20 07:00:00 13.8 4 Norte 10 Norte 0 -- -- 68
2020-05-20 06:00:00 15.1 3 Nordeste 9 Norte 0 -- -- 65
2020-05-20 05:00:00 18.2 7 Norte 10 Norte 0 -- -- 49
2020-05-20 04:00:00 17.7 7 Norte 9 Norte 0 -- -- 57
2020-05-20 03:00:00 18.5 7 Norte 10 Norte 0 -- -- 53
2020-05-20 02:00:00 20.3 8 Norte 15 Norte 0 -- -- 47
2020-05-20 01:00:00 21.2 10 Norte 19 Norte 0 -- -- 46
2020-05-20 00:00:00 22 12 Noroeste 22 Norte 0 -- -- 45
2020-05-19 23:00:00 21.6 11 Norte 18 Noroeste 0 -- -- 45
2020-05-19 22:00:00 21.4 10 Noroeste 15 Noroeste 0 -- -- 45
2020-05-19 21:00:00 22.6 6 Noroeste 10 Noroeste 0 -- -- 50
2020-05-19 20:00:00 27.3 4 Noroeste 9 Noroeste 0 -- -- 43
2020-05-19 19:00:00 28.4 5 Oeste 12 Sudoeste 0 -- -- 38
2020-05-19 18:00:00 27.9 5 Sur 15 Sudoeste 0 -- -- 40
2020-05-19 17:00:00 27.2 6 Sudeste 15 Sudeste 0 -- -- 41
2020-05-19 16:00:00 26.9 5 Sur 14 Este 0 -- -- 37
2020-05-19 15:00:00 27.3 6 Sur 20 Sudeste 0 -- -- 39
2020-05-19 14:00:00 26.5 7 Sudeste 15 Sudeste 0 -- -- 41
2020-05-19 13:00:00 25.7 6 Sudeste 15 Sudeste 0 -- -- 41
2020-05-19 12:00:00 25.1 8 Sudeste 16 Este 0 -- -- 42
2020-05-19 11:00:00 24.9 6 Sudeste 16 Sudeste 0 -- -- 37
2020-05-19 10:00:00 23.7 5 Nordeste 17 Norte 0 -- -- 42
2020-05-19 09:00:00 20.9 11 Norte 21 Norte 0 -- -- 46
2020-05-19 08:00:00 18.2 9 Norte 24 Norte 0 -- -- 52
2020-05-19 07:00:00 17.5 11 Norte 27 Norte 0 -- -- 57
2020-05-19 06:00:00 17.9 14 Norte 33 Norte 0 -- -- 62
2020-05-19 05:00:00 18.5 17 Norte 32 Norte 0 -- -- 62
2020-05-19 04:00:00 18.7 13 Norte 26 Norte 0 -- -- 62
2020-05-19 03:00:00 17.9 9 Norte 17 Nordeste 0 -- -- 64
2020-05-19 02:00:00 18.4 10 Norte 18 Norte 0 -- -- 57
2020-05-19 01:00:00 19 10 Norte 18 Norte 0 -- -- 50
2020-05-19 00:00:00 18.3 6 Norte 17 Noroeste 0 -- -- 55
2020-05-18 23:00:00 19.5 7 Norte 17 Noroeste 0 -- -- 54
2020-05-18 22:00:00 20.3 9 Noroeste 18 Noroeste 0 -- -- 50
2020-05-18 21:00:00 21.5 8 Noroeste 16 Norte 0 -- -- 47
2020-05-18 20:00:00 25.1 9 Norte 19 Norte 0 -- -- 40
2020-05-18 19:00:00 26.7 10 Norte 20 Norte 0 -- -- 36
2020-05-18 18:00:00 27.2 9 Norte 23 Noroeste 0 -- -- 34
2020-05-18 17:00:00 27 10 Norte 22 Norte 0 -- -- 35
2020-05-18 16:00:00 26.5 11 Norte 25 Noroeste 0 -- -- 35
2020-05-18 15:00:00 25.9 9 Norte 23 Norte 0 -- -- 34
2020-05-18 14:00:00 25.6 10 Noroeste 19 Norte 0 -- -- 36
2020-05-18 13:00:00 24.5 10 Norte 19 Norte 0 -- -- 41
2020-05-18 12:00:00 23.3 10 Norte 22 Norte 0 -- -- 37
2020-05-18 11:00:00 21.8 10 Norte 23 Norte 0 -- -- 41
2020-05-18 10:00:00 20.2 9 Norte 26 Noroeste 0 -- -- 46
2020-05-18 09:00:00 17.3 9 Norte 19 Nordeste 0 -- -- 54
2020-05-18 08:00:00 14 3 Nordeste 23 Norte 0 -- -- 58
2020-05-18 07:00:00 14.1 10 Nordeste 18 Nordeste 0 -- -- 56
2020-05-18 06:00:00 14.2 7 Norte 13 Norte 0 -- -- 54
2020-05-18 05:00:00 13.5 8 Norte 14 Norte 0 -- -- 58
2020-05-18 04:00:00 13.6 8 Norte 12 Norte 0 -- -- 57
2020-05-18 03:00:00 14.9 8 Norte 14 Norte 0 -- -- 55
2020-05-18 02:00:00 15.4 8 Norte 13 Norte 0 -- -- 53
2020-05-18 01:00:00 15.5 5 Norte 13 Norte 0 -- -- 55
2020-05-18 00:00:00 17.1 8 Norte 19 Norte 0 -- -- 49
2020-05-17 23:00:00 17.2 10 Norte 24 Norte 0 -- -- 52
2020-05-17 22:00:00 17.7 14 Norte 23 Norte 0 -- -- 52
2020-05-17 21:00:00 18.7 8 Noroeste 23 Norte 0 -- -- 49
2020-05-17 20:00:00 21.1 11 Norte 25 Norte 0 -- -- 43
2020-05-17 19:00:00 22.7 11 Norte 24 Norte 0 -- -- 43
2020-05-17 18:00:00 22 9 Sudeste 14 Sudoeste 0 -- -- 48
2020-05-17 17:00:00 22.1 6 Oeste 21 Sudeste 0 -- -- 49
2020-05-17 16:00:00 21.7 10 Sur 17 Sur 0 -- -- 50
2020-05-17 15:00:00 21 9 Sur 15 Sudeste 0 -- -- 47
2020-05-17 14:00:00 20.2 9 Sudeste 20 Sudeste 0 -- -- 49
2020-05-17 13:00:00 19.5 6 Este 14 Este 0 -- -- 49
2020-05-17 12:00:00 18 7 Noroeste 22 Norte 0 -- -- 50
2020-05-17 11:00:00 16.2 11 Norte 28 Norte 0 -- -- 58
2020-05-17 10:00:00 14.6 14 Norte 28 Norte 0 -- -- 56
2020-05-17 09:00:00 13.9 16 Norte 31 Norte 0 -- -- 55
2020-05-17 08:00:00 11.7 14 Norte 24 Norte 0 -- -- 67
2020-05-17 07:00:00 11.2 12 Norte 28 Norte 0 -- -- 71
2020-05-17 06:00:00 12.5 12 Norte 24 Noroeste 0 -- -- 68
2020-05-17 05:00:00 12.8 15 Norte 24 Norte 0 -- -- 68
2020-05-17 04:00:00 13.9 10 Norte 20 Norte 0 -- -- 62
2020-05-17 03:00:00 13.9 11 Norte 23 Noroeste 0 -- -- 60
2020-05-17 02:00:00 13.8 7 Norte 20 Norte 0 -- -- 62
2020-05-17 01:00:00 14.2 10 Norte 18 Norte 0 -- -- 64
2020-05-17 00:00:00 14.8 9 Norte 24 Norte 0 -- -- 65
2020-05-16 23:00:00 15.3 9 Norte 21 Noroeste 0 -- -- 65
2020-05-16 22:00:00 16.2 9 Norte 18 Norte 0 -- -- 63
2020-05-16 21:00:00 17.1 9 Noroeste 16 Norte 0 -- -- 61
2020-05-16 20:00:00 20 7 Norte 20 Norte 0 -- -- 53
2020-05-16 19:00:00 21.3 7 Norte 15 Noroeste 0 -- -- 51
2020-05-16 18:00:00 19.4 2 Sudeste 10 Noroeste 0 -- -- 56
2020-05-16 17:00:00 19.8 4 Nordeste 13 Norte 0 -- -- 59
2020-05-16 16:00:00 19.5 3 Este 12 Este 0 -- -- 58
2020-05-16 15:00:00 19.8 7 Nordeste 14 Nordeste 0 -- -- 59
2020-05-16 14:00:00 18.9 4 Este 18 Sudeste 0 -- -- 61
2020-05-16 13:00:00 18.2 6 Nordeste 20 Norte 0 -- -- 65
2020-05-16 12:00:00 17.2 8 Nordeste 22 Norte 0 -- -- 67
2020-05-16 11:00:00 15 11 Norte 28 Norte 0 -- -- 72
2020-05-16 10:00:00 12.1 14 Norte 29 Norte 0 -- -- 78
2020-05-16 09:00:00 11.5 14 Norte 33 Norte 0 -- -- 79
2020-05-16 08:00:00 10 18 Norte 32 Noroeste 0 -- -- 83
2020-05-16 07:00:00 9.6 12 Norte 24 Nordeste 0 -- -- 86
2020-05-16 06:00:00 10.6 11 Norte 28 Norte 0 -- -- 82
2020-05-16 05:00:00 10.9 15 Norte 29 Norte 0 -- -- 81
2020-05-16 04:00:00 10.8 11 Norte 25 Norte 0 -- -- 83
2020-05-16 03:00:00 10.8 13 Norte 26 Norte 0 -- -- 84
2020-05-16 02:00:00 11.1 17 Norte 29 Norte 0 -- -- 83
2020-05-16 01:00:00 11.6 15 Norte 28 Norte 0 -- -- 83
2020-05-16 00:00:00 10.6 6 Norte 8 Nordeste 0 -- -- 90
2020-05-15 23:00:00 10.7 4 Norte 7 Norte 0 -- -- 90
2020-05-15 22:00:00 12.5 5 Norte 13 Este 0 -- -- 87
2020-05-15 21:00:00 13.7 7 Norte 16 Noroeste 0 -- -- 81
2020-05-15 20:00:00 14.8 4 Norte 18 Este 2.4 -- -- 85
2020-05-15 19:00:00 17 8 Sudeste 19 Norte 0 -- -- 73
2020-05-15 18:00:00 17.4 7 Norte 15 Norte 0 -- -- 68
2020-05-15 17:00:00 14.6 4 Noroeste 7 Nordeste 0 -- -- 82
2020-05-15 16:00:00 13.1 6 Noroeste 30 Sudeste 2.2 -- -- 87
2020-05-15 15:00:00 15.9 3 Oeste 15 Norte 0.2 -- -- 81
2020-05-15 14:00:00 14.9 3 Nordeste 7 Noroeste 0.8 -- -- 84
2020-05-15 13:00:00 14.2 0 Calma 13 Sudeste 3 -- -- 86
2020-05-15 12:00:00 15.3 5 Sudeste 9 Sudeste 0 -- -- 79
2020-05-15 11:00:00 13.7 3 Sudeste 8 Sudeste 0 -- -- 87
2020-05-15 10:00:00 12.3 3 Sudeste 9 Sudeste 0 -- -- 89
2020-05-15 09:00:00 12.1 3 Este 7 Este 0 -- -- 92
2020-05-15 08:00:00 11.2 2 Norte 4 Norte 0 -- -- 94
2020-05-15 07:00:00 11.3 3 Norte 6 Nordeste 0 -- -- 94
2020-05-15 06:00:00 11.4 2 Nordeste 5 Nordeste 0 -- -- 94
2020-05-15 05:00:00 11.5 2 Nordeste 6 Norte 0 -- -- 94
2020-05-15 04:00:00 11.6 3 Norte 4 Norte 0 -- -- 93
2020-05-15 03:00:00 11.7 0 Calma 10 Este 0.2 -- -- 92
2020-05-15 02:00:00 12 3 Nordeste 12 Este 0 -- -- 88
2020-05-15 01:00:00 12.1 4 Nordeste 9 Norte 0 -- -- 86
2020-05-15 00:00:00 12.1 5 Norte 9 Nordeste 0 -- -- 88
2020-05-14 23:00:00 12.2 4 Norte 12 Nordeste 0 -- -- 89
2020-05-14 22:00:00 12.3 4 Nordeste 11 Nordeste 0 -- -- 88
2020-05-14 21:00:00 12.8 7 Norte 9 Norte 0.4 -- -- 87
2020-05-14 20:00:00 13.6 7 Sudeste 21 Sudeste 0.2 -- -- 80
2020-05-14 19:00:00 14.8 5 Este 15 Sudeste 0 -- -- 71
2020-05-14 18:00:00 15.6 6 Este 15 Sudeste 0 -- -- 66
2020-05-14 17:00:00 14.7 5 Este 15 Este 0 -- -- 70
2020-05-14 16:00:00 14.1 7 Sudeste 18 Este 0 -- -- 68
2020-05-14 15:00:00 13.6 8 Sudeste 19 Sudeste 0 -- -- 72
2020-05-14 14:00:00 13.3 8 Sudeste 16 Este 0 -- -- 75
2020-05-14 13:00:00 12.2 5 Este 14 Este 0 -- -- 81
2020-05-14 12:00:00 10.8 4 Sudeste 12 Este 0 -- -- 88
2020-05-14 11:00:00 10.1 4 Este 9 Este 0 -- -- 94
2020-05-14 10:00:00 9.4 3 Sudeste 13 Sur 0 -- -- 97
2020-05-14 09:00:00 9 5 Sudeste 10 Sudeste 0 -- -- 97
2020-05-14 08:00:00 8.8 2 Sudeste 5 Sudeste 0 -- -- 97
2020-05-14 07:00:00 8.7 0 Calma 5 Sur 0 -- -- 96
2020-05-14 06:00:00 8.5 0 Calma 5 Sudeste 0 -- -- 96
2020-05-14 05:00:00 8.8 3 Sur 15 Oeste 0.4 -- -- 95
2020-05-14 04:00:00 8.9 9 Oeste 26 Oeste 3 -- -- 93
2020-05-14 03:00:00 9.6 8 Sudoeste 20 Sudeste 3.6 -- -- 95
2020-05-14 02:00:00 10.7 10 Sudeste 17 Sudeste 1.8 -- -- 95
2020-05-14 01:00:00 11.1 4 Norte 14 Nordeste 0.2 -- -- 94
2020-05-14 00:00:00 11.3 2 Norte 11 Sudoeste 3.6 -- -- 93
2020-05-13 23:00:00 11.6 0 Calma -- -- 1 -- -- 93
2020-05-13 22:00:00 11.5 6 Norte 14 Norte 1.4 -- -- 92
2020-05-13 21:00:00 12.3 4 Sur 47 Sudeste 0.4 -- -- 83
2020-05-13 20:00:00 15.2 3 Sudoeste 12 Sur 0 -- -- 72
2020-05-13 19:00:00 15.7 8 Sudeste 21 Sudeste 0 -- -- 64
2020-05-13 18:00:00 16.2 13 Sudeste 24 Sudeste 0 -- -- 64
2020-05-13 17:00:00 15.4 6 Sudeste 25 Sudeste 0 -- -- 72
2020-05-13 16:00:00 15.9 11 Sudeste 21 Sudeste 0 -- -- 70
2020-05-13 15:00:00 15.5 11 Sur 24 Sudeste 0 -- -- 68
2020-05-13 14:00:00 14.6 12 Sudeste 20 Sudeste 0 -- -- 75
2020-05-13 13:00:00 13.8 14 Sudeste 20 Sudeste 0 -- -- 77
2020-05-13 12:00:00 13.2 8 Sur 18 Sudoeste 0 -- -- 81
2020-05-13 11:00:00 12.7 9 Oeste 20 Sudoeste 0 -- -- 82
2020-05-13 10:00:00 11.9 13 Sudoeste 21 Sudoeste 0 -- -- 87
2020-05-13 09:00:00 11.1 10 Sudoeste 17 Sur 0 -- -- 91
2020-05-13 08:00:00 11 2 Sudeste 6 Sudeste 2.2 -- -- 97
2020-05-13 07:00:00 11 4 Sudeste 5 Sudeste 0 -- -- 97
2020-05-13 06:00:00 11 2 Sudeste 5 Este 0 -- -- 96
2020-05-13 05:00:00 11 2 Este 4 Sur 0 -- -- 95
2020-05-13 04:00:00 -- -- -- -- -- -- -- -- --
2020-05-13 03:00:00 11 0 Calma 6 Este 0 -- -- 94
2020-05-13 02:00:00 11.2 4 Este 9 Sudeste 0 -- -- 94
2020-05-13 01:00:00 11.7 3 Sudeste 8 Sudeste 0.4 -- -- 94
2020-05-13 00:00:00 11.9 5 Nordeste 9 Nordeste 0 -- -- 93
2020-05-12 23:00:00 12.1 2 Este 7 Nordeste 0 -- -- 90
2020-05-12 22:00:00 12.4 2 Nordeste 8 Sudeste 0 -- -- 87
2020-05-12 21:00:00 13.5 3 Este 8 Sudeste 0 -- -- 82
2020-05-12 20:00:00 14.4 4 Este 12 Sudeste 0 -- -- 75
2020-05-12 19:00:00 15.3 4 Nordeste 12 Este 0 -- -- 74
2020-05-12 18:00:00 13.3 2 Sudeste 24 Sudeste 0 -- -- 83
2020-05-12 17:00:00 14.4 16 Sudeste 27 Sudeste 0 -- -- 81
2020-05-12 16:00:00 15.5 4 Sudeste 9 Este 0 -- -- 74
2020-05-12 15:00:00 15 5 Norte 15 Norte 0.4 -- -- 80
2020-05-12 14:00:00 12.6 6 Norte 20 Sudeste 2.2 -- -- 91
2020-05-12 13:00:00 14.6 9 Sudeste 19 Sudeste 0.2 -- -- 87
2020-05-12 12:00:00 14.9 4 Sudeste 11 Sudeste 0 -- -- 84
2020-05-12 11:00:00 14.2 3 Este 9 Sudeste 0 -- -- 86
2020-05-12 10:00:00 13.8 3 Sudeste 6 Este 0 -- -- 87
2020-05-12 09:00:00 11.5 3 Nordeste 7 Noroeste 0 -- -- 95
2020-05-12 08:00:00 10.4 4 Noroeste 10 Norte 0 -- -- 94
2020-05-12 07:00:00 11.4 0 Calma 4 Este 0 -- -- 96
2020-05-12 06:00:00 10.7 0 Calma 4 Noroeste 0 -- -- 96
2020-05-12 05:00:00 11.5 3 Nordeste 8 Noroeste 0 -- -- 95
2020-05-12 04:00:00 -- -- -- -- -- -- -- -- --
2020-05-12 03:00:00 -- -- -- -- -- -- -- -- --
2020-05-12 02:00:00 -- -- -- -- -- -- -- -- --
2020-05-12 01:00:00 -- -- -- -- -- -- -- -- --
2020-05-12 00:00:00 -- -- -- -- -- -- -- -- --
2020-05-11 23:00:00 -- -- -- -- -- -- -- -- --
2020-05-11 22:00:00 -- -- -- -- -- -- -- -- --
2020-05-11 21:00:00 -- -- -- -- -- -- -- -- --
2020-05-11 20:00:00 -- -- -- -- -- -- -- -- --
2020-05-11 19:00:00 -- -- -- -- -- -- -- -- --
2020-05-11 18:00:00 -- -- -- -- -- -- -- -- --
2020-05-11 17:00:00 -- -- -- -- -- -- -- -- --
2020-05-11 16:00:00 -- -- -- -- -- -- -- -- --
2020-05-11 15:00:00 -- -- -- -- -- -- -- -- --
2020-05-11 14:00:00 -- -- -- -- -- -- -- -- --
2020-05-11 13:00:00 -- -- -- -- -- -- -- -- --
2020-05-11 12:00:00 -- -- -- -- -- -- -- -- --
2020-05-11 11:00:00 -- -- -- -- -- -- -- -- --
2020-05-11 10:00:00 -- -- -- -- -- -- -- -- --
2020-05-11 09:00:00 -- -- -- -- -- -- -- -- --
2020-05-11 08:00:00 -- -- -- -- -- -- -- -- --
2020-05-11 07:00:00 -- -- -- -- -- -- -- -- --
2020-05-11 06:00:00 -- -- -- -- -- -- -- -- --
2020-05-11 05:00:00 -- -- -- -- -- -- -- -- --
2020-05-11 04:00:00 -- -- -- -- -- -- -- -- --
2020-05-11 03:00:00 11.4 6 Sudoeste 18 Oeste 0 -- -- 88
2020-05-11 02:00:00 11.6 9 Oeste 22 Oeste 0 -- -- 87
2020-05-11 01:00:00 11.9 6 Oeste 16 Noroeste 0 -- -- 83
2020-05-11 00:00:00 12.1 12 Noroeste 23 Oeste 0 -- -- 80
2020-05-10 23:00:00 11.8 12 Oeste 21 Oeste 0 -- -- 82
2020-05-10 22:00:00 13 11 Oeste 22 Oeste 0 -- -- 76
2020-05-10 21:00:00 14.1 10 Oeste 25 Oeste 0 -- -- 68
2020-05-10 20:00:00 15.7 16 Oeste 32 Oeste 0 -- -- 65
2020-05-10 19:00:00 16.5 19 Oeste 33 Oeste 0 -- -- 65
2020-05-10 18:00:00 16.7 11 Oeste 25 Sudoeste 0 -- -- 64
2020-05-10 17:00:00 16.8 12 Oeste 26 Oeste 0 -- -- 65
2020-05-10 16:00:00 15.7 13 Oeste 24 Oeste 0.6 -- -- 86
2020-05-10 15:00:00 13.7 11 Oeste 23 Oeste 0.4 -- -- 82
2020-05-10 14:00:00 13.6 12 Sur 21 Sur 0 -- -- 77
2020-05-10 13:00:00 12.8 12 Sudoeste 22 Oeste 0 -- -- 84
2020-05-10 12:00:00 11.6 11 Oeste 18 Sudoeste 0 -- -- 90
2020-05-10 11:00:00 10.8 0 Calma 5 Sur 0 -- -- 91
2020-05-10 10:00:00 10.1 2 Norte 5 Norte 1.2 -- -- 95
2020-05-10 09:00:00 9.8 2 Este 5 Sudeste 0 -- -- 95
2020-05-10 08:00:00 9 0 Calma 7 Noroeste 1.2 -- -- 97
2020-05-10 07:00:00 8.3 0 Calma 6 Este 0 -- -- 96
2020-05-10 06:00:00 7.4 0 Calma 5 Norte 0 -- -- 96
2020-05-10 05:00:00 7.6 3 Norte 5 Norte 0 -- -- 95
2020-05-10 04:00:00 7.9 2 Noroeste 11 Oeste 0 -- -- 94
2020-05-10 03:00:00 8.4 3 Oeste 12 Oeste 0 -- -- 93
2020-05-10 02:00:00 8.8 7 Oeste 15 Sudoeste 0 -- -- 94
2020-05-10 01:00:00 9.1 6 Oeste 13 Noroeste 0 -- -- 93
2020-05-10 00:00:00 9.9 5 Noroeste 11 Noroeste 0 -- -- 92
2020-05-09 23:00:00 10.2 3 Noroeste 9 Norte 0 -- -- 92
2020-05-09 22:00:00 11.9 6 Noroeste 15 Noroeste 0.2 -- -- 88
2020-05-09 21:00:00 12.8 5 Sur 26 Sur 3 -- -- 90
2020-05-09 20:00:00 12.9 6 Sur 19 Sur 0.4 -- -- 91
2020-05-09 19:00:00 12.7 11 Sur 32 Sur 1 -- -- 91
2020-05-09 18:00:00 13.8 19 Sudoeste 35 Sur 2.2 -- -- 86
2020-05-09 17:00:00 19 14 Sur 27 Sur 0 -- -- 52
2020-05-09 16:00:00 18.7 14 Sur 35 Sudeste 0 -- -- 53
2020-05-09 15:00:00 17.1 13 Sur 21 Sudeste 0 -- -- 60
2020-05-09 14:00:00 16.2 8 Sudoeste 21 Sur 0 -- -- 67
2020-05-09 13:00:00 16.1 10 Sur 22 Sur 0 -- -- 70
2020-05-09 12:00:00 14.7 9 Sudoeste 22 Sur 0 -- -- 76
2020-05-09 11:00:00 14.3 10 Sudoeste 21 Sudoeste 0 -- -- 76
2020-05-09 10:00:00 13.6 9 Sudeste 21 Sudeste 0 -- -- 84
2020-05-09 09:00:00 12.7 4 Sudoeste 14 Sudoeste 0 -- -- 83
2020-05-09 08:00:00 12.4 7 Sudoeste 18 Sur 0 -- -- 88
2020-05-09 07:00:00 10.5 0 Calma 5 Noroeste 0 -- -- 94
2020-05-09 06:00:00 12 5 Sudoeste 22 Oeste 0 -- -- 91
2020-05-09 05:00:00 12.6 10 Oeste 24 Oeste 0 -- -- 91
2020-05-09 04:00:00 11.8 2 Oeste 5 Oeste 0 -- -- 92
2020-05-09 03:00:00 14.1 3 Sudoeste 12 Sudoeste 0 -- -- 86
2020-05-09 02:00:00 15.2 9 Sudoeste 18 Sudoeste 0 -- -- 85
2020-05-09 01:00:00 15.3 8 Oeste 18 Sudoeste 0 -- -- 82
2020-05-09 00:00:00 16.2 12 Oeste 28 Oeste 0 -- -- 81
2020-05-08 23:00:00 16.8 14 Oeste 25 Noroeste 0 -- -- 75
2020-05-08 22:00:00 17.4 9 Oeste 19 Oeste 0 -- -- 67
2020-05-08 21:00:00 19.1 7 Oeste 22 Oeste 0 -- -- 66
2020-05-08 20:00:00 21.5 11 Oeste 26 Sudoeste 0 -- -- 53
2020-05-08 19:00:00 22.9 11 Sudoeste 25 Sur 0 -- -- 51
2020-05-08 18:00:00 23.1 13 Sur 26 Sudoeste 0 -- -- 50
2020-05-08 17:00:00 23 13 Sur 26 Sur 0 -- -- 54
2020-05-08 16:00:00 22.1 9 Sudeste 19 Sudeste 0 -- -- 60
2020-05-08 15:00:00 22.2 10 Sur 25 Sudeste 0 -- -- 62
2020-05-08 14:00:00 22 8 Sudoeste 18 Sudeste 0 -- -- 65
2020-05-08 13:00:00 20.3 9 Sur 19 Sudoeste 0 -- -- 65
2020-05-08 12:00:00 20.2 10 Sudoeste 19 Sudoeste 0 -- -- 65
2020-05-08 11:00:00 18.6 8 Sudoeste 19 Sudoeste 0 -- -- 70
2020-05-08 10:00:00 18.8 3 Sudeste 10 Sudeste 0 -- -- 75
2020-05-08 09:00:00 17.6 4 Este 8 Este 0 -- -- 79
2020-05-08 08:00:00 13.9 2 Norte 4 Norte 0 -- -- 90
2020-05-08 07:00:00 15.2 3 Norte 10 Este 0 -- -- 85
2020-05-08 06:00:00 16.9 3 Este 16 Sudoeste 0 -- -- 76
2020-05-08 05:00:00 18.3 9 Sudoeste 15 Sudoeste 0 -- -- 67
2020-05-08 04:00:00 17.8 5 Sudoeste 11 Sudeste 0 -- -- 68
2020-05-08 03:00:00 17.7 4 Este 9 Este 0 -- -- 70
2020-05-08 02:00:00 17.9 4 Norte 16 Noroeste 0 -- -- 67
2020-05-08 01:00:00 19.7 8 Oeste 18 Oeste 0 -- -- 56
2020-05-08 00:00:00 19.9 4 Sudoeste 17 Oeste 0 -- -- 56
2020-05-07 23:00:00 18.5 0 Calma 5 Norte 0 -- -- 67
2020-05-07 22:00:00 17.5 0 Calma 6 Noroeste 0 -- -- 72
2020-05-07 21:00:00 20.8 3 Noroeste 18 Oeste 0 -- -- 64
2020-05-07 20:00:00 23.5 4 Sudoeste 11 Sur 0 -- -- 55
2020-05-07 19:00:00 24.9 4 Sudoeste 12 Sur 0 -- -- 49
2020-05-07 18:00:00 24 6 Sudoeste 20 Sudeste 0 -- -- 54
2020-05-07 17:00:00 23 6 Sur 17 Noroeste 0 -- -- 54
2020-05-07 16:00:00 22.4 6 Este 21 Sur 0 -- -- 57
2020-05-07 15:00:00 24.1 11 Sudeste 20 Sudeste 0 -- -- 50
2020-05-07 14:00:00 23.1 9 Sudeste 20 Sudeste 0 -- -- 58
2020-05-07 13:00:00 22.7 9 Sudeste 19 Sur 0 -- -- 55
2020-05-07 12:00:00 21.1 9 Sudeste 19 Sur 0 -- -- 59
2020-05-07 11:00:00 19.6 3 Sudeste 8 Sudeste 0 -- -- 56
2020-05-07 10:00:00 18.6 2 Sur 8 Oeste 0 -- -- 58
2020-05-07 09:00:00 16.6 0 Calma 7 Norte 0 -- -- 75
2020-05-07 08:00:00 16.2 5 Norte 10 Norte 0 -- -- 63
2020-05-07 07:00:00 16.1 6 Norte 10 Nordeste 0 -- -- 64
2020-05-07 06:00:00 16.4 6 Norte 9 Norte 0 -- -- 58
2020-05-07 05:00:00 16.4 8 Norte 11 Norte 0 -- -- 59
2020-05-07 04:00:00 17.2 8 Norte 21 Norte 0 -- -- 58
2020-05-07 03:00:00 17.6 12 Norte 29 Norte 0 -- -- 56
2020-05-07 02:00:00 18 14 Norte 29 Norte 0 -- -- 55
2020-05-07 01:00:00 17.9 13 Norte 28 Noroeste 0 -- -- 57
2020-05-07 00:00:00 17.6 9 Norte 25 Norte 0 -- -- 59
2020-05-06 23:00:00 16.9 8 Norte 13 Norte 0 -- -- 61
2020-05-06 22:00:00 16.5 0 Calma 12 Noroeste 0 -- -- 69
2020-05-06 21:00:00 18.4 4 Noroeste 7 Oeste 0 -- -- 67
2020-05-06 20:00:00 21.6 4 Sudoeste 10 Sur 0 -- -- 53
2020-05-06 19:00:00 22.7 4 Sur 11 Sudoeste 0 -- -- 44
2020-05-06 18:00:00 22.8 5 Oeste 17 Sur 0 -- -- 45
2020-05-06 17:00:00 22 7 Sur 20 Sudeste 0 -- -- 46
2020-05-06 16:00:00 21.8 8 Sur 22 Sur 0 -- -- 47
2020-05-06 15:00:00 20.8 8 Sur 18 Sur 0 -- -- 49
2020-05-06 14:00:00 20.8 5 Sudoeste 17 Sur 0 -- -- 55
2020-05-06 13:00:00 19.9 6 Sudeste 15 Sur 0 -- -- 57
2020-05-06 12:00:00 19.1 6 Sur 14 Norte 0 -- -- 54
2020-05-06 11:00:00 17.4 8 Norte 26 Norte 0 -- -- 66
2020-05-06 10:00:00 15 14 Norte 34 Norte 0 -- -- 77
2020-05-06 09:00:00 13.2 17 Norte 32 Norte 0 -- -- 82
2020-05-06 08:00:00 12 13 Norte 22 Norte 0 -- -- 85
2020-05-06 07:00:00 10.6 13 Norte 19 Norte 0 -- -- 90
2020-05-06 06:00:00 9.2 2 Norte 8 Oeste 0 -- -- 89
2020-05-06 05:00:00 10.3 3 Norte 8 Nordeste 0 -- -- 85
2020-05-06 04:00:00 11.4 3 Noroeste 8 Norte 0 -- -- 83
2020-05-06 03:00:00 12.5 2 Este 15 Noroeste 0 -- -- 81
2020-05-06 02:00:00 13.2 7 Oeste 16 Noroeste 0 -- -- 78
2020-05-06 01:00:00 13.7 10 Oeste 15 Noroeste 0 -- -- 76
2020-05-06 00:00:00 12.2 8 Noroeste 10 Noroeste 0 -- -- 81
2020-05-05 23:00:00 13.4 5 Noroeste 9 Noroeste 0 -- -- 74
2020-05-05 22:00:00 14.2 4 Norte 8 Norte 0 -- -- 74
2020-05-05 21:00:00 16.5 0 Calma 9 Oeste 0 -- -- 63
2020-05-05 20:00:00 19.2 5 Sudoeste 15 Sudoeste 0 -- -- 56
2020-05-05 19:00:00 20.4 8 Sudoeste 17 Oeste 0 -- -- 46
2020-05-05 18:00:00 20.3 6 Sudoeste 23 Noroeste 0 -- -- 53
2020-05-05 17:00:00 20.5 8 Oeste 21 Sudoeste 0 -- -- 55
2020-05-05 16:00:00 20.2 11 Sur 23 Sudoeste 0 -- -- 49
2020-05-05 15:00:00 19.2 6 Oeste 19 Sur 0 -- -- 55
2020-05-05 14:00:00 18.6 9 Sur 18 Sudoeste 0 -- -- 58
2020-05-05 13:00:00 17.4 8 Sudoeste 17 Sudoeste 0 -- -- 61
2020-05-05 12:00:00 15.7 7 Sudoeste 18 Sudoeste 0 -- -- 63
2020-05-05 11:00:00 15 8 Sudoeste 18 Sudoeste 0 -- -- 74
2020-05-05 10:00:00 13.5 2 Oeste 7 Sudoeste 0 -- -- 80
2020-05-05 09:00:00 11.6 0 Calma 2 Norte 0 -- -- 91
2020-05-05 08:00:00 10.4 2 Oeste 4 Este 0 -- -- 94
2020-05-05 07:00:00 9.8 0 Calma 3 Noroeste 0 -- -- 96
2020-05-05 06:00:00 9.1 0 Calma 4 Oeste 0 -- -- 93
2020-05-05 05:00:00 9.2 2 Noroeste 5 Noroeste 0 -- -- 92
2020-05-05 04:00:00 10.8 5 Norte 11 Oeste 0 -- -- 86
2020-05-05 03:00:00 12.6 5 Oeste 29 Oeste 0 -- -- 80
2020-05-05 02:00:00 13.1 16 Oeste 36 Oeste 0 -- -- 75
2020-05-05 01:00:00 13.3 18 Oeste 31 Oeste 0 -- -- 76
2020-05-05 00:00:00 13.7 14 Oeste 25 Oeste 0 -- -- 77
2020-05-04 23:00:00 13.9 12 Oeste 18 Oeste 0 -- -- 79
2020-05-04 22:00:00 14.6 6 Oeste 12 Sudoeste 0 -- -- 78
2020-05-04 21:00:00 17.3 5 Sudoeste 23 Sur 0 -- -- 65
2020-05-04 20:00:00 18.9 11 Sudoeste 37 Sudoeste 0 -- -- 61
2020-05-04 19:00:00 19.8 17 Sudoeste 39 Sur 0 -- -- 59
2020-05-04 18:00:00 20.8 22 Sudoeste 42 Sudoeste 0 -- -- 56
2020-05-04 17:00:00 21.2 19 Sudoeste 41 Oeste 0 -- -- 60
2020-05-04 16:00:00 19.8 18 Sudoeste 36 Oeste 0 -- -- 67
2020-05-04 15:00:00 19.8 8 Oeste 22 Sudoeste 0 -- -- 73
2020-05-04 14:00:00 20.4 12 Sudoeste 26 Sur 0 -- -- 65
2020-05-04 13:00:00 21.4 12 Sur 31 Sur 0 -- -- 61
2020-05-04 12:00:00 21.4 5 Sur 9 Sudeste 0 -- -- 61
2020-05-04 11:00:00 20 4 Sudoeste 14 Oeste 0 -- -- 63
2020-05-04 10:00:00 19.7 3 Noroeste 13 Oeste 0 -- -- 59
2020-05-04 09:00:00 19.2 4 Noroeste 13 Sudoeste 0 -- -- 62
2020-05-04 08:00:00 19 2 Norte 13 Sur 0 -- -- 59
2020-05-04 07:00:00 19.6 7 Oeste 18 Sur 0 -- -- 61
2020-05-04 06:00:00 18.7 3 Nordeste 10 Este 0 -- -- 60
2020-05-04 05:00:00 19.4 3 Sudoeste 14 Sudeste 0 -- -- 60
2020-05-04 04:00:00 18.7 3 Norte 9 Noroeste 0 -- -- 62
2020-05-04 03:00:00 18.3 4 Norte 8 Norte 0 -- -- 66
2020-05-04 02:00:00 18.9 3 Oeste 8 Noroeste 0 -- -- 64
2020-05-04 01:00:00 19.4 4 Noroeste 11 Nordeste 0 -- -- 65
2020-05-04 00:00:00 20.7 5 Norte 11 Norte 0 -- -- 60
2020-05-03 23:00:00 20.3 7 Norte 10 Norte 0 -- -- 65
2020-05-03 22:00:00 20.9 8 Norte 10 Norte 0 -- -- 63
2020-05-03 21:00:00 22.6 5 Norte 6 Nordeste 0 -- -- 63
2020-05-03 20:00:00 26 4 Oeste 14 Sudeste 0 -- -- 51
2020-05-03 19:00:00 27 12 Sudeste 23 Sudeste 0 -- -- 41
2020-05-03 18:00:00 27.3 15 Sudeste 30 Sudeste 0 -- -- 37
2020-05-03 17:00:00 27.1 12 Sur 25 Sur 0 -- -- 49
2020-05-03 16:00:00 26.7 14 Sudeste 28 Sudeste 0 -- -- 43
2020-05-03 15:00:00 25.8 14 Sur 26 Sur 0 -- -- 50
2020-05-03 14:00:00 24.7 7 Sudeste 18 Este 0 -- -- 55
2020-05-03 13:00:00 23.6 5 Sudeste 14 Sudeste 0 -- -- 55
2020-05-03 12:00:00 23 6 Sudeste 13 Sudeste 0 -- -- 57
2020-05-03 11:00:00 21.8 4 Sudeste 10 Sudeste 0 -- -- 60
2020-05-03 10:00:00 20.9 5 Nordeste 9 Nordeste 0 -- -- 68
2020-05-03 09:00:00 17.7 4 Norte 6 Norte 0 -- -- 79
2020-05-03 08:00:00 13.4 4 Norte 6 Norte 0 -- -- 88
2020-05-03 07:00:00 12.8 5 Norte 6 Norte 0 -- -- 91
2020-05-03 06:00:00 12.2 6 Norte 7 Norte 0 -- -- 93
2020-05-03 05:00:00 12.1 4 Norte 6 Norte 0 -- -- 91
2020-05-03 04:00:00 11.9 5 Norte 6 Norte 0 -- -- 91
2020-05-03 03:00:00 11.9 3 Norte 5 Norte 0 -- -- 89
2020-05-03 02:00:00 12.2 4 Norte 6 Norte 0 -- -- 88
2020-05-03 01:00:00 13.1 4 Norte 7 Noroeste 0 -- -- 84
2020-05-03 00:00:00 12.9 3 Norte 6 Norte 0 -- -- 85